Time;durP1;ratioP1;P1;durP2;ratioP2;P2;SDS_P1;SDS_P2;PMS_P1;PMS_P2;Temp;Humidity;BMP_temperature;BMP_pressure;BME280_temperature;BME280_humidity;BME280_pressure;Samples;Min_cycle;Max_cycle;Signal;HPM_P1;HPM_P2
2023/10/09 03:56:43;;;;;;;4.47;1.60;;;;;;;10.03;61.22;101340.56;6337162;27;21335;-82
2023/10/09 03:59:46;;;;;;;3.62;1.60;;;;;;;10.04;61.18;101339.56;5416141;32;32933;-83
2023/10/09 04:02:49;;;;;;;2.58;1.55;;;;;;;9.94;62.10;101336.91;5402887;32;33674;-83
2023/10/09 04:05:54;;;;;;;4.47;2.20;;;;;;;9.99;62.36;101341.87;5416511;32;33448;-83
2023/10/09 04:08:58;;;;;;;2.30;1.67;;;;;;;10.05;61.37;101325.13;5390739;32;33881;-83
2023/10/09 04:15:37;;;;;;;1.62;1.48;;;;;;;10.05;59.52;101338.56;5374400;32;33550;-83
2023/10/09 04:18:45;;;;;;;2.90;1.83;;;;;;;9.95;59.83;101341.31;5403521;32;33515;-87
2023/10/09 04:21:48;;;;;;;11.82;2.72;;;;;;;10.03;58.67;101329.78;5403718;32;33679;-87
2023/10/09 04:24:51;;;;;;;3.37;1.90;;;;;;;10.00;58.76;101332.78;5403124;32;34709;-84
2023/10/09 04:31:31;;;;;;;4.12;1.77;;;;;;;10.10;56.15;101322.81;5404826;32;34371;-83
2023/10/09 04:34:35;;;;;;;1.48;1.37;;;;;;;10.13;55.08;101317.12;5404569;32;33592;-83
2023/10/09 04:37:39;;;;;;;3.12;1.30;;;;;;;10.09;55.47;101326.53;5403210;32;33611;-83
2023/10/09 04:43:45;;;;;;;2.25;1.52;;;;;;;10.13;54.65;101316.28;5390854;32;34551;-83
2023/10/09 04:53:24;;;;;;;4.87;1.80;;;;;;;10.09;54.05;101309.50;5416670;32;33898;-83
2023/10/09 04:56:32;;;;;;;1.45;1.35;;;;;;;10.06;54.59;101315.19;5391785;32;34657;-83
2023/10/09 04:59:46;;;;;;;2.53;1.45;;;;;;;10.02;54.47;101303.06;5384963;33;33389;-83
2023/10/09 05:02:56;;;;;;;1.65;1.55;;;;;;;10.12;53.26;101293.06;5400578;33;34045;-83
2023/10/09 05:05:59;;;;;;;2.08;1.42;;;;;;;10.11;53.70;101286.84;5404319;33;34009;-83
2023/10/09 05:09:13;;;;;;;3.78;1.65;;;;;;;10.08;53.44;101289.84;5401881;33;34826;-83
2023/10/09 05:12:16;;;;;;;5.10;1.50;;;;;;;10.10;53.20;101279.78;5397634;33;34768;-83
2023/10/09 05:15:26;;;;;;;2.35;1.23;;;;;;;10.10;53.58;101274.37;5398516;33;35023;-83
2023/10/09 05:18:36;;;;;;;2.33;1.62;;;;;;;10.09;53.90;101298.75;5396487;33;33484;-88
2023/10/09 05:24:47;;;;;;;3.05;1.62;;;;;;;10.16;53.56;101284.53;5391318;33;33816;-82
2023/10/09 05:27:50;;;;;;;1.95;1.55;;;;;;;10.22;53.30;101283.09;5386042;33;34881;-83
2023/10/09 05:31:16;;;;;;;2.40;1.40;;;;;;;10.27;52.75;101269.22;5387131;33;34360;-83
2023/10/09 05:34:21;;;;;;;1.62;1.52;;;;;;;10.23;53.24;101268.63;5398767;33;34088;-83
2023/10/09 05:37:42;;;;;;;2.42;1.50;;;;;;;10.27;53.41;101278.13;5397562;33;33662;-83
2023/10/09 05:40:53;;;;;;;3.35;1.42;;;;;;;10.36;53.14;101298.72;5394912;33;33640;-83
2023/10/09 05:47:31;;;;;;;7.68;2.00;;;;;;;10.33;53.12;101307.13;5375163;33;33731;-83
2023/10/09 05:50:34;;;;;;;1.95;1.40;;;;;;;10.31;53.55;101329.81;5396046;32;33889;-83
2023/10/09 05:58:08;;;;;;;3.75;1.98;;;;;;;10.41;52.23;101300.94;5395806;33;33978;-85
2023/10/09 06:03:49;;;;;;;7.62;1.35;;;;;;;10.56;52.66;101283.28;5389272;33;34248;-85
2023/10/09 06:07:00;;;;;;;3.10;1.80;;;;;;;10.67;51.60;101292.94;5383941;33;33372;-85
2023/10/09 06:10:17;;;;;;;2.50;1.30;;;;;;;10.62;50.29;101290.72;5395084;32;33273;-84
2023/10/09 06:13:39;;;;;;;3.50;1.60;;;;;;;10.58;50.13;101277.72;5378881;33;34625;-85
2023/10/09 06:16:43;;;;;;;1.75;1.40;;;;;;;10.46;50.28;101269.03;5373954;33;34341;-83
2023/10/09 06:19:48;;;;;;;2.10;1.35;;;;;;;10.59;50.20;101263.28;5396525;33;33250;-85
2023/10/09 06:22:58;;;;;;;3.35;1.45;;;;;;;10.59;49.57;101250.66;5364046;33;33917;-84
2023/10/09 06:26:23;;;;;;;1.27;1.00;;;;;;;10.57;49.80;101243.72;5371001;33;33382;-85
2023/10/09 06:29:36;;;;;;;1.33;1.23;;;;;;;10.69;49.57;101241.62;5396893;33;33043;-84
2023/10/09 06:36:08;;;;;;;2.87;1.23;;;;;;;10.70;48.83;101259.47;5395740;33;33543;-85
2023/10/09 06:45:45;;;;;;;1.52;1.30;;;;;;;10.77;45.55;101261.38;5382412;33;34577;-86
2023/10/09 06:48:59;;;;;;;1.37;0.98;;;;;;;10.86;44.75;101257.72;5383154;33;33828;-85
2023/10/09 06:52:15;;;;;;;1.23;1.05;;;;;;;10.88;44.87;101255.72;5397638;33;33502;-85
2023/10/09 06:55:19;;;;;;;2.05;1.30;;;;;;;10.81;44.95;101260.03;5381350;33;34705;-86
2023/10/09 06:58:23;;;;;;;2.33;1.70;;;;;;;10.82;45.05;101252.81;5396698;33;34339;-86
2023/10/09 07:01:39;;;;;;;3.08;1.52;;;;;;;10.92;44.88;101242.78;5397644;33;34352;-85
2023/10/09 07:07:54;;;;;;;2.78;1.60;;;;;;;11.11;44.54;101223.72;5384643;33;33873;-86
2023/10/09 07:20:39;;;;;;;3.33;1.52;;;;;;;11.44;44.04;101223.00;5383569;33;33888;-84
2023/10/09 07:23:48;;;;;;;2.70;1.40;;;;;;;11.58;44.30;101214.28;5375454;33;34705;-82
2023/10/09 07:26:53;;;;;;;5.68;1.40;;;;;;;11.69;43.74;101211.28;5400672;33;35295;-82
2023/10/09 07:29:56;;;;;;;8.48;1.42;;;;;;;11.72;43.20;101191.22;5385761;33;33484;-82
2023/10/09 07:36:16;;;;;;;1.48;1.33;;;;;;;11.81;42.36;101144.34;5394470;33;34323;-85
2023/10/09 07:39:22;;;;;;;5.18;1.15;;;;;;;12.00;43.06;101143.25;5399278;32;34000;-82
2023/10/09 07:48:55;;;;;;;3.45;1.40;;;;;;;12.13;41.69;101126.53;5397492;32;33905;-83
2023/10/09 07:51:58;;;;;;;6.00;1.58;;;;;;;12.27;42.12;101120.44;5396630;33;34534;-83
2023/10/09 07:55:02;;;;;;;3.47;1.40;;;;;;;12.43;41.54;101138.47;5399777;32;34719;-83
2023/10/09 07:58:10;;;;;;;3.47;1.12;;;;;;;12.63;41.39;101136.22;5396986;33;33608;-82
2023/10/09 08:01:15;;;;;;;8.07;1.30;;;;;;;12.48;40.83;101136.94;5403013;32;33510;-82
2023/10/09 08:04:37;;;;;;;8.30;1.17;;;;;;;12.34;40.97;101128.69;5371446;33;33928;-83
2023/10/09 08:07:54;;;;;;;4.43;1.67;;;;;;;11.99;41.70;101134.31;5395996;33;33999;-82
2023/10/09 08:17:37;;;;;;;1.60;1.20;;;;;;;12.08;42.20;101113.56;5383027;33;34593;-83
2023/10/09 08:24:04;;;;;;;3.42;1.55;;;;;;;11.93;42.05;101107.13;5386111;33;34554;-82
2023/10/09 08:27:46;;;;;;;4.53;1.37;;;;;;;11.84;42.52;101091.91;5383172;33;33934;-83
2023/10/09 08:31:02;;;;;;;81.55;9.10;;;;;;;11.84;41.90;101103.53;5392374;33;33593;-82
2023/10/09 08:34:09;;;;;;;12.48;2.22;;;;;;;11.65;43.07;101101.19;5401495;32;34605;-83
2023/10/09 08:37:15;;;;;;;1.80;0.98;;;;;;;11.79;43.17;101101.37;5385543;32;33719;-83
2023/10/09 08:40:21;;;;;;;4.28;1.00;;;;;;;11.99;42.13;101092.94;5390957;33;35107;-86
2023/10/09 08:43:24;;;;;;;2.92;1.20;;;;;;;12.08;41.84;101086.56;5399410;33;33845;-86
2023/10/09 08:46:28;;;;;;;6.55;1.42;;;;;;;12.14;41.86;101083.19;5395966;33;34871;-84
2023/10/09 08:49:33;;;;;;;5.57;1.20;;;;;;;12.11;42.60;101082.66;5396590;33;34069;-86
2023/10/09 08:52:37;;;;;;;3.33;1.40;;;;;;;12.36;42.07;101086.16;5372361;33;33957;-85
2023/10/09 08:55:41;;;;;;;4.12;1.25;;;;;;;12.33;42.05;101091.91;5384368;33;34755;-85
2023/10/09 08:58:44;;;;;;;2.40;1.12;;;;;;;12.60;41.02;101085.25;5370612;33;33815;-85
2023/10/09 09:01:52;;;;;;;3.45;1.42;;;;;;;12.69;41.73;101076.97;5376632;33;34536;-85
2023/10/09 09:04:55;;;;;;;2.55;1.27;;;;;;;12.82;40.97;101071.00;5399776;33;33892;-85
2023/10/09 09:07:59;;;;;;;1.12;0.90;;;;;;;12.83;41.12;101059.16;5367543;33;34912;-86
2023/10/09 09:11:12;;;;;;;10.82;1.73;;;;;;;13.01;40.98;101039.12;5384996;33;33913;-85
2023/10/09 09:14:19;;;;;;;2.03;1.23;;;;;;;13.16;40.40;101034.66;5394947;33;33798;-85
2023/10/09 09:17:32;;;;;;;2.05;1.25;;;;;;;13.21;40.72;101042.25;5395995;33;33794;-85
2023/10/09 09:20:45;;;;;;;5.35;1.75;;;;;;;13.17;40.47;101049.88;5396766;33;34138;-88
2023/10/09 09:24:01;;;;;;;8.00;2.00;;;;;;;13.23;40.78;101041.03;5383219;33;35240;-84
2023/10/09 09:27:40;;;;;;;1.87;1.20;;;;;;;13.57;40.18;101039.81;5393361;33;35047;-83
2023/10/09 09:30:35;;;;;;;3.42;1.30;;;;;;;13.86;38.70;101038.22;5397382;33;34053;-84
2023/10/09 09:33:39;;;;;;;3.50;1.42;;;;;;;14.01;39.38;101031.81;5400971;32;34090;-85
2023/10/09 09:36:58;;;;;;;3.12;1.40;;;;;;;14.19;37.05;101028.75;5399454;33;33832;-85
2023/10/09 09:43:26;;;;;;;5.07;1.12;;;;;;;14.03;38.45;101035.16;5369014;33;34532;-85
2023/10/09 09:46:34;;;;;;;1.65;1.20;;;;;;;14.39;37.24;101022.78;5396633;32;33915;-86
2023/10/09 09:49:41;;;;;;;3.92;1.00;;;;;;;14.57;36.71;101014.31;5382180;32;33890;-85
2023/10/09 09:52:46;;;;;;;2.65;1.23;;;;;;;14.73;35.92;101014.91;5391641;33;35435;-85
2023/10/09 09:55:57;;;;;;;1.92;1.23;;;;;;;14.72;36.14;101007.00;5381395;33;34200;-83
2023/10/09 09:59:06;;;;;;;2.15;1.30;;;;;;;14.89;36.29;101010.34;5392821;33;34484;-85
2023/10/09 10:02:20;;;;;;;3.00;1.02;;;;;;;15.28;36.51;101019.94;5395518;33;33898;-85
2023/10/09 10:05:29;;;;;;;2.47;1.08;;;;;;;15.19;35.58;101006.50;5378714;33;33645;-87
2023/10/09 10:08:32;;;;;;;3.30;1.17;;;;;;;15.29;36.09;101006.16;5387663;33;33862;-84
2023/10/09 10:11:44;;;;;;;1.55;1.08;;;;;;;15.06;35.71;101006.34;5383374;32;33323;-84
2023/10/09 10:14:59;;;;;;;0.77;0.65;;;;;;;15.19;36.64;100962.25;5395823;33;34652;-86
2023/10/09 10:18:07;;;;;;;2.72;1.23;;;;;;;15.86;34.94;100926.50;5396804;32;34618;-85
2023/10/09 10:21:18;;;;;;;0.93;0.90;;;;;;;15.54;35.15;100886.38;5366492;33;33838;-83
2023/10/09 10:28:42;;;;;;;2.70;1.00;;;;;;;15.24;36.44;100897.41;5396297;33;33787;-84
2023/10/09 10:32:08;;;;;;;3.25;1.55;;;;;;;15.52;35.66;100902.00;5400233;32;35493;-84
2023/10/09 10:35:11;;;;;;;8.07;1.60;;;;;;;15.27;35.82;100875.31;5404390;32;33819;-85
2023/10/09 10:38:41;;;;;;;3.25;2.60;;;;;;;15.20;36.45;100856.25;5394297;32;34175;-84
2023/10/09 10:41:55;;;;;;;4.75;2.50;;;;;;;15.40;34.80;100845.56;5394025;32;34032;-85
2023/10/09 10:45:00;;;;;;;4.15;1.83;;;;;;;15.71;35.16;100855.22;5396774;33;34313;-85
2023/10/09 10:48:09;;;;;;;3.00;1.80;;;;;;;15.76;35.16;100839.12;5368921;33;33946;-84
2023/10/09 10:51:21;;;;;;;3.42;1.62;;;;;;;15.77;35.46;100831.84;5394415;33;33422;-85
2023/10/09 10:58:00;;;;;;;;;;;;;;;16.36;34.88;100816.81;5395623;32;33644;-85
2023/10/09 11:01:11;;;;;;;3.28;1.45;;;;;;;16.45;34.98;100829.19;5383305;33;34191;-84
2023/10/09 11:04:24;;;;;;;1.42;0.95;;;;;;;16.33;34.16;100835.22;5381925;33;33873;-84
2023/10/09 11:07:28;;;;;;;5.93;1.40;;;;;;;16.96;33.29;100828.62;5387024;33;33986;-84
2023/10/09 11:10:31;;;;;;;3.28;1.30;;;;;;;17.22;33.08;100838.69;5376680;33;33835;-84
2023/10/09 11:13:36;;;;;;;2.70;1.48;;;;;;;17.98;32.65;100840.03;5393829;33;33743;-85
2023/10/09 11:16:50;;;;;;;1.50;1.33;;;;;;;17.37;32.76;100820.25;5402297;32;33799;-84
2023/10/09 11:19:53;;;;;;;3.25;1.20;;;;;;;17.04;32.76;100790.34;5390776;32;34354;-85
2023/10/09 11:26:27;;;;;;;2.03;1.25;;;;;;;16.72;33.20;100882.56;5395732;32;34269;-89
2023/10/09 11:32:49;;;;;;;7.20;2.22;;;;;;;19.01;31.89;100777.09;5402814;32;34027;-85
2023/10/09 11:36:00;;;;;;;2.83;1.77;;;;;;;20.12;29.47;100762.44;5406546;32;34561;-86
2023/10/09 11:39:20;;;;;;;6.68;1.25;;;;;;;20.75;29.83;100829.50;5404679;32;34421;-84
2023/10/09 11:45:55;;;;;;;2.55;1.17;;;;;;;20.69;28.14;100866.00;5400805;33;33723;-84
2023/10/09 11:52:45;;;;;;;3.15;1.45;;;;;;;23.73;25.57;100824.22;5379883;33;33982;-84
2023/10/09 11:55:52;;;;;;;2.35;1.27;;;;;;;22.52;26.09;100797.28;5391908;33;33793;-86
2023/10/09 11:58:58;;;;;;;6.80;1.42;;;;;;;21.22;28.04;100798.63;5378795;33;33789;-85
2023/10/09 12:02:03;;;;;;;4.15;1.60;;;;;;;20.92;28.73;100780.38;5386724;33;33483;-91
2023/10/09 12:05:07;;;;;;;4.28;1.73;;;;;;;20.31;29.04;100774.16;5370346;33;33924;-90
2023/10/09 12:08:15;;;;;;;2.25;1.42;;;;;;;18.84;32.42;100760.47;5398330;33;33629;-87
2023/10/09 12:11:22;;;;;;;3.08;1.42;;;;;;;17.67;34.43;100732.66;5398085;33;34540;-86
2023/10/09 12:14:33;;;;;;;3.55;1.62;;;;;;;17.09;37.38;100757.09;5380990;33;33979;-86
2023/10/09 12:17:43;;;;;;;6.97;1.58;;;;;;;16.82;40.94;100748.09;5379065;33;35042;-86
2023/10/09 12:20:51;;;;;;;2.95;1.10;;;;;;;16.99;41.48;100744.75;5366664;33;33832;-85
2023/10/09 12:23:57;;;;;;;4.37;1.23;;;;;;;16.62;37.38;100742.66;5378644;33;34625;-86
2023/10/09 12:27:09;;;;;;;4.47;2.08;;;;;;;16.20;43.30;100742.78;5378330;33;33377;-85
2023/10/09 12:30:12;;;;;;;3.28;1.75;;;;;;;15.95;41.08;100739.81;5377866;33;33906;-86
2023/10/09 12:33:17;;;;;;;2.28;1.40;;;;;;;16.11;47.07;100714.13;5377394;33;33856;-85
2023/10/09 12:36:20;;;;;;;2.33;1.50;;;;;;;16.34;42.96;100711.03;5378728;33;33766;-84
2023/10/09 12:39:23;;;;;;;3.15;1.37;;;;;;;16.98;41.23;100720.47;5379671;33;33860;-84
2023/10/09 12:42:28;;;;;;;2.78;1.23;;;;;;;16.94;39.94;100717.34;5396867;33;33869;-84
2023/10/09 12:45:34;;;;;;;1.65;1.50;;;;;;;16.77;40.49;100716.94;5386025;33;34608;-84
2023/10/09 12:48:37;;;;;;;3.50;1.60;;;;;;;16.36;42.79;100722.56;5385767;33;33817;-84
2023/10/09 12:51:40;;;;;;;5.20;1.67;;;;;;;16.17;44.15;100726.06;5397371;33;33544;-85
2023/10/09 12:54:46;;;;;;;5.20;1.80;;;;;;;15.80;47.19;100733.72;5384225;33;34394;-85
2023/10/09 12:57:51;;;;;;;3.03;1.15;;;;;;;15.52;47.75;100734.59;5383564;33;34647;-84
2023/10/09 13:00:54;;;;;;;3.70;1.62;;;;;;;15.39;48.85;100735.37;5386525;33;33791;-84
2023/10/09 13:04:01;;;;;;;3.70;1.48;;;;;;;15.20;50.49;100725.25;5389063;32;36600;-84
2023/10/09 13:07:06;;;;;;;2.90;1.40;;;;;;;15.06;52.77;100721.59;5411935;32;34922;-84
2023/10/09 13:10:09;;;;;;;4.40;1.58;;;;;;;15.05;55.50;100735.37;5397420;32;33632;-85
2023/10/09 13:13:12;;;;;;;3.00;1.17;;;;;;;14.99;51.83;100728.87;5392484;33;34032;-84
2023/10/09 13:16:23;;;;;;;4.72;1.65;;;;;;;15.07;51.76;100723.28;5390175;33;33882;-84
2023/10/09 13:19:26;;;;;;;4.05;1.67;;;;;;;14.97;52.80;100722.78;5384927;33;33370;-85
2023/10/09 13:22:30;;;;;;;1.80;1.58;;;;;;;14.69;56.04;100720.94;5370941;33;33928;-85
2023/10/09 13:25:39;;;;;;;1.90;1.30;;;;;;;14.34;60.74;100711.84;5383211;33;33339;-84
2023/10/09 13:28:45;;;;;;;3.33;1.58;;;;;;;14.00;65.68;100716.09;5371777;33;34331;-89
2023/10/09 13:31:52;;;;;;;4.20;1.37;;;;;;;13.69;66.79;100708.25;5383223;33;34907;-88
2023/10/09 13:34:55;;;;;;;2.28;1.35;;;;;;;13.38;80.36;100708.50;5391347;32;34707;-84
2023/10/09 13:37:59;;;;;;;3.87;1.45;;;;;;;13.16;72.70;100707.53;5396624;32;33939;-84
2023/10/09 13:41:04;;;;;;;6.72;2.15;;;;;;;12.79;76.60;100692.25;5382185;33;34111;-83
2023/10/09 13:44:07;;;;;;;1.55;1.45;;;;;;;12.65;81.24;100704.69;5384485;33;33483;-85
2023/10/09 13:47:19;;;;;;;2.03;1.48;;;;;;;12.62;79.29;100708.59;5393344;33;34576;-84
2023/10/09 13:50:32;;;;;;;2.45;1.45;;;;;;;12.54;84.45;100718.63;5389575;33;33884;-84
2023/10/09 13:53:35;;;;;;;3.17;2.10;;;;;;;12.49;84.12;100711.09;5391284;32;35041;-84
2023/10/09 13:56:39;;;;;;;3.00;1.70;;;;;;;12.47;99.56;100721.22;5382225;33;33847;-84
2023/10/09 13:59:43;;;;;;;5.28;1.73;;;;;;;12.43;100.00;100714.50;5395075;33;34169;-84
2023/10/09 14:02:47;;;;;;;3.05;1.80;;;;;;;12.45;100.00;100707.91;5382936;33;33843;-84
2023/10/09 14:05:56;;;;;;;2.08;1.45;;;;;;;12.40;100.00;100696.81;5395997;32;33770;-84
2023/10/09 14:09:04;;;;;;;3.87;1.92;;;;;;;12.27;100.00;100674.97;5382990;33;33971;-84
2023/10/09 14:12:13;;;;;;;3.83;1.90;;;;;;;12.20;100.00;100668.66;5395103;33;34652;-84
2023/10/09 14:15:17;;;;;;;3.05;1.75;;;;;;;12.24;100.00;100664.56;5382158;33;33841;-84
2023/10/09 14:18:21;;;;;;;4.45;1.85;;;;;;;12.16;100.00;100667.31;5377582;33;33524;-84
2023/10/09 14:21:28;;;;;;;3.25;1.80;;;;;;;12.03;100.00;100665.22;5370220;33;34693;-84
2023/10/09 14:24:34;;;;;;;3.37;2.03;;;;;;;11.95;100.00;100644.53;5396669;33;34314;-84
2023/10/09 14:27:36;;;;;;;5.50;2.20;;;;;;;11.90;100.00;100649.63;5383325;33;33523;-84
2023/10/09 14:30:42;;;;;;;2.90;2.37;;;;;;;11.95;100.00;100652.62;5394093;33;33889;-84
2023/10/09 14:33:53;;;;;;;3.92;2.85;;;;;;;12.09;100.00;100652.88;5397169;32;33431;-84
2023/10/09 14:36:59;;;;;;;7.78;2.97;;;;;;;12.13;100.00;100671.22;5401101;33;34103;-84
2023/10/09 14:40:03;;;;;;;9.30;2.55;;;;;;;11.99;100.00;100672.84;5399405;33;33594;-84
2023/10/09 14:43:07;;;;;;;4.15;2.20;;;;;;;11.90;100.00;100673.91;5396166;33;34759;-83
2023/10/09 14:46:14;;;;;;;4.57;2.62;;;;;;;11.94;100.00;100674.41;5396213;33;33771;-83
2023/10/09 14:49:21;;;;;;;6.40;2.20;;;;;;;11.93;100.00;100686.19;5396103;33;33612;-83
2023/10/09 14:52:24;;;;;;;3.75;2.40;;;;;;;11.90;100.00;100668.50;5395577;33;34673;-88
2023/10/09 14:55:31;;;;;;;3.15;2.05;;;;;;;11.81;100.00;100669.56;5381344;33;33836;-89
2023/10/09 14:58:38;;;;;;;4.32;2.30;;;;;;;11.81;100.00;100664.16;5382285;33;33839;-83
2023/10/09 15:01:43;;;;;;;3.53;2.70;;;;;;;11.69;100.00;100673.69;5394263;33;33916;-83
2023/10/09 15:04:46;;;;;;;4.85;2.25;;;;;;;11.66;100.00;100672.19;5383123;33;34605;-85
2023/10/09 15:07:50;;;;;;;3.33;1.90;;;;;;;11.64;100.00;100668.84;5393985;32;33539;-85
2023/10/09 15:10:55;;;;;;;3.53;2.33;;;;;;;11.53;100.00;100663.84;5395065;33;33428;-85
2023/10/09 15:13:59;;;;;;;4.82;2.45;;;;;;;11.46;100.00;100666.38;5397625;33;33845;-85
2023/10/09 15:17:03;;;;;;;7.78;2.70;;;;;;;11.48;100.00;100668.91;5398762;33;33398;-85
2023/10/09 15:20:13;;;;;;;8.15;2.25;;;;;;;11.50;100.00;100645.31;5390442;33;193521;-84
2023/10/09 15:23:16;;;;;;;3.22;2.40;;;;;;;11.47;100.00;100651.91;5407971;32;33490;-84
2023/10/09 15:26:20;;;;;;;4.80;2.58;;;;;;;11.59;100.00;100646.94;5408580;32;34297;-84
2023/10/09 15:29:30;;;;;;;5.85;2.20;;;;;;;11.48;100.00;100650.03;5396573;33;34685;-84
2023/10/09 15:32:34;;;;;;;3.33;2.35;;;;;;;11.48;100.00;100656.28;5397680;33;33409;-84
2023/10/09 15:35:40;;;;;;;7.62;2.55;;;;;;;11.50;100.00;100662.34;5408790;32;33751;-84
2023/10/09 15:38:43;;;;;;;4.25;2.92;;;;;;;11.55;100.00;100651.88;5370787;33;35156;-83
2023/10/09 15:41:46;;;;;;;5.37;2.60;;;;;;;11.60;100.00;100640.53;5392825;33;34588;-83
2023/10/09 15:44:54;;;;;;;3.53;2.62;;;;;;;11.55;100.00;100642.91;5397657;33;33804;-83
2023/10/09 15:48:04;;;;;;;4.20;2.87;;;;;;;11.53;100.00;100626.94;5399705;33;33577;-83
2023/10/09 15:51:14;;;;;;;5.75;2.80;;;;;;;11.57;100.00;100633.63;5397936;33;34221;-83
2023/10/09 15:54:19;;;;;;;4.03;2.80;;;;;;;11.57;100.00;100630.09;5399088;33;34912;-83
